sensor_id;sensor_type;location;lat;lon;timestamp;P1;durP1;ratioP1;P2;durP2;ratioP2
20567;SDS011;10442;49.932;11.592;2023-05-07T00:00:53;3.10;;;2.90;;
20567;SDS011;10442;49.932;11.592;2023-05-07T00:03:21;2.45;;;2.30;;
20567;SDS011;10442;49.932;11.592;2023-05-07T00:05:49;4.50;;;3.33;;
20567;SDS011;10442;49.932;11.592;2023-05-07T00:08:16;4.32;;;2.85;;
20567;SDS011;10442;49.932;11.592;2023-05-07T00:10:43;3.28;;;3.08;;
20567;SDS011;10442;49.932;11.592;2023-05-07T00:13:11;2.83;;;2.58;;
20567;SDS011;10442;49.932;11.592;2023-05-07T00:15:39;3.53;;;2.75;;
20567;SDS011;10442;49.932;11.592;2023-05-07T00:18:06;5.13;;;3.35;;
20567;SDS011;10442;49.932;11.592;2023-05-07T00:20:33;5.97;;;2.72;;
20567;SDS011;10442;49.932;11.592;2023-05-07T00:23:02;2.72;;;2.53;;
20567;SDS011;10442;49.932;11.592;2023-05-07T00:25:29;2.72;;;2.53;;
20567;SDS011;10442;49.932;11.592;2023-05-07T00:27:57;3.25;;;2.95;;
20567;SDS011;10442;49.932;11.592;2023-05-07T00:30:29;4.20;;;3.83;;
20567;SDS011;10442;49.932;11.592;2023-05-07T00:32:57;5.22;;;4.20;;
20567;SDS011;10442;49.932;11.592;2023-05-07T00:35:24;4.20;;;3.90;;
20567;SDS011;10442;49.932;11.592;2023-05-07T00:37:52;6.07;;;3.90;;
20567;SDS011;10442;49.932;11.592;2023-05-07T00:40:19;4.55;;;4.07;;
20567;SDS011;10442;49.932;11.592;2023-05-07T00:42:47;3.65;;;3.42;;
20567;SDS011;10442;49.932;11.592;2023-05-07T00:45:16;3.28;;;3.08;;
20567;SDS011;10442;49.932;11.592;2023-05-07T00:47:43;3.35;;;3.05;;
20567;SDS011;10442;49.932;11.592;2023-05-07T00:50:11;3.78;;;3.47;;
20567;SDS011;10442;49.932;11.592;2023-05-07T00:52:40;3.38;;;3.17;;
20567;SDS011;10442;49.932;11.592;2023-05-07T00:55:11;3.78;;;3.47;;
20567;SDS011;10442;49.932;11.592;2023-05-07T00:57:41;2.60;;;2.42;;
20567;SDS011;10442;49.932;11.592;2023-05-07T01:00:09;3.92;;;3.00;;
20567;SDS011;10442;49.932;11.592;2023-05-07T01:02:39;4.93;;;3.33;;
20567;SDS011;10442;49.932;11.592;2023-05-07T01:05:07;3.95;;;3.50;;
20567;SDS011;10442;49.932;11.592;2023-05-07T01:07:40;4.60;;;4.00;;
20567;SDS011;10442;49.932;11.592;2023-05-07T01:10:08;2.88;;;2.67;;
20567;SDS011;10442;49.932;11.592;2023-05-07T01:12:37;2.75;;;2.65;;
20567;SDS011;10442;49.932;11.592;2023-05-07T01:15:07;2.85;;;2.65;;
20567;SDS011;10442;49.932;11.592;2023-05-07T01:17:40;3.13;;;2.60;;
20567;SDS011;10442;49.932;11.592;2023-05-07T01:20:15;2.35;;;2.22;;
20567;SDS011;10442;49.932;11.592;2023-05-07T01:22:45;3.28;;;2.50;;
20567;SDS011;10442;49.932;11.592;2023-05-07T01:25:13;2.30;;;2.20;;
20567;SDS011;10442;49.932;11.592;2023-05-07T01:27:47;3.67;;;2.67;;
20567;SDS011;10442;49.932;11.592;2023-05-07T01:30:14;2.83;;;2.63;;
20567;SDS011;10442;49.932;11.592;2023-05-07T01:32:47;2.60;;;2.50;;
20567;SDS011;10442;49.932;11.592;2023-05-07T01:35:20;2.88;;;2.67;;
20567;SDS011;10442;49.932;11.592;2023-05-07T01:37:51;3.00;;;2.80;;
20567;SDS011;10442;49.932;11.592;2023-05-07T01:40:19;4.22;;;2.97;;
20567;SDS011;10442;49.932;11.592;2023-05-07T01:42:47;2.90;;;2.70;;
20567;SDS011;10442;49.932;11.592;2023-05-07T01:45:17;2.83;;;2.63;;
20567;SDS011;10442;49.932;11.592;2023-05-07T01:47:45;2.78;;;2.58;;
20567;SDS011;10442;49.932;11.592;2023-05-07T01:50:13;3.45;;;3.15;;
20567;SDS011;10442;49.932;11.592;2023-05-07T01:52:43;3.65;;;3.33;;
20567;SDS011;10442;49.932;11.592;2023-05-07T01:55:11;4.30;;;3.45;;
20567;SDS011;10442;49.932;11.592;2023-05-07T01:57:39;4.13;;;3.83;;
20567;SDS011;10442;49.932;11.592;2023-05-07T02:00:07;4.68;;;4.28;;
20567;SDS011;10442;49.932;11.592;2023-05-07T02:02:42;4.75;;;4.20;;
20567;SDS011;10442;49.932;11.592;2023-05-07T02:05:21;4.10;;;3.80;;
20567;SDS011;10442;49.932;11.592;2023-05-07T02:07:55;4.68;;;4.18;;
20567;SDS011;10442;49.932;11.592;2023-05-07T02:10:23;5.13;;;4.70;;
20567;SDS011;10442;49.932;11.592;2023-05-07T02:12:50;4.38;;;3.97;;
20567;SDS011;10442;49.932;11.592;2023-05-07T02:15:18;4.20;;;3.90;;
20567;SDS011;10442;49.932;11.592;2023-05-07T02:17:59;4.50;;;4.10;;
20567;SDS011;10442;49.932;11.592;2023-05-07T02:20:33;4.07;;;3.78;;
20567;SDS011;10442;49.932;11.592;2023-05-07T02:23:01;4.07;;;3.67;;
20567;SDS011;10442;49.932;11.592;2023-05-07T02:25:29;5.25;;;4.85;;
20567;SDS011;10442;49.932;11.592;2023-05-07T02:27:57;4.43;;;4.13;;
20567;SDS011;10442;49.932;11.592;2023-05-07T02:30:37;4.53;;;4.22;;
20567;SDS011;10442;49.932;11.592;2023-05-07T02:33:05;4.55;;;4.15;;
20567;SDS011;10442;49.932;11.592;2023-05-07T02:35:34;4.50;;;4.15;;
20567;SDS011;10442;49.932;11.592;2023-05-07T02:38:01;4.70;;;4.10;;
20567;SDS011;10442;49.932;11.592;2023-05-07T02:40:30;4.38;;;4.07;;
20567;SDS011;10442;49.932;11.592;2023-05-07T02:43:00;4.22;;;3.92;;
20567;SDS011;10442;49.932;11.592;2023-05-07T02:45:27;4.15;;;3.85;;
20567;SDS011;10442;49.932;11.592;2023-05-07T02:47:55;3.50;;;3.30;;
20567;SDS011;10442;49.932;11.592;2023-05-07T02:50:22;4.47;;;4.13;;
20567;SDS011;10442;49.932;11.592;2023-05-07T02:52:49;4.82;;;4.38;;
20567;SDS011;10442;49.932;11.592;2023-05-07T02:55:17;4.13;;;3.85;;
20567;SDS011;10442;49.932;11.592;2023-05-07T02:57:44;4.85;;;4.43;;
20567;SDS011;10442;49.932;11.592;2023-05-07T03:00:15;4.85;;;4.40;;
20567;SDS011;10442;49.932;11.592;2023-05-07T03:03:16;5.82;;;4.35;;
20567;SDS011;10442;49.932;11.592;2023-05-07T03:05:44;4.80;;;4.50;;
20567;SDS011;10442;49.932;11.592;2023-05-07T03:08:11;5.93;;;5.25;;
20567;SDS011;10442;49.932;11.592;2023-05-07T03:10:38;7.63;;;4.78;;
20567;SDS011;10442;49.932;11.592;2023-05-07T03:13:06;5.20;;;4.90;;
20567;SDS011;10442;49.932;11.592;2023-05-07T03:15:33;5.65;;;5.15;;
20567;SDS011;10442;49.932;11.592;2023-05-07T03:18:01;5.43;;;4.57;;
20567;SDS011;10442;49.932;11.592;2023-05-07T03:20:28;5.32;;;4.00;;
20567;SDS011;10442;49.932;11.592;2023-05-07T03:22:57;6.05;;;5.55;;
20567;SDS011;10442;49.932;11.592;2023-05-07T03:25:24;5.53;;;4.97;;
20567;SDS011;10442;49.932;11.592;2023-05-07T03:27:52;4.65;;;4.35;;
20567;SDS011;10442;49.932;11.592;2023-05-07T03:30:22;5.05;;;4.68;;
20567;SDS011;10442;49.932;11.592;2023-05-07T03:32:50;5.82;;;5.32;;
20567;SDS011;10442;49.932;11.592;2023-05-07T03:35:18;5.05;;;4.75;;
20567;SDS011;10442;49.932;11.592;2023-05-07T03:37:45;5.57;;;5.07;;
20567;SDS011;10442;49.932;11.592;2023-05-07T03:40:13;6.38;;;5.88;;
20567;SDS011;10442;49.932;11.592;2023-05-07T03:42:46;6.00;;;5.38;;
20567;SDS011;10442;49.932;11.592;2023-05-07T03:45:14;5.65;;;5.20;;
20567;SDS011;10442;49.932;11.592;2023-05-07T03:47:50;5.65;;;5.22;;
20567;SDS011;10442;49.932;11.592;2023-05-07T03:50:20;6.53;;;5.93;;
20567;SDS011;10442;49.932;11.592;2023-05-07T03:52:47;6.05;;;5.15;;
20567;SDS011;10442;49.932;11.592;2023-05-07T03:55:17;6.20;;;5.15;;
20567;SDS011;10442;49.932;11.592;2023-05-07T03:57:50;6.30;;;5.80;;
20567;SDS011;10442;49.932;11.592;2023-05-07T04:00:18;6.47;;;6.03;;
20567;SDS011;10442;49.932;11.592;2023-05-07T04:02:46;5.25;;;4.90;;
20567;SDS011;10442;49.932;11.592;2023-05-07T04:05:19;5.43;;;4.97;;
20567;SDS011;10442;49.932;11.592;2023-05-07T04:07:49;5.57;;;5.18;;
20567;SDS011;10442;49.932;11.592;2023-05-07T04:10:22;4.95;;;4.65;;
20567;SDS011;10442;49.932;11.592;2023-05-07T04:12:53;6.07;;;5.68;;
20567;SDS011;10442;49.932;11.592;2023-05-07T04:15:22;6.32;;;5.72;;
20567;SDS011;10442;49.932;11.592;2023-05-07T04:17:50;6.25;;;5.85;;
20567;SDS011;10442;49.932;11.592;2023-05-07T04:20:20;5.32;;;5.03;;
20567;SDS011;10442;49.932;11.592;2023-05-07T04:22:54;6.00;;;5.50;;
20567;SDS011;10442;49.932;11.592;2023-05-07T04:25:22;6.68;;;5.93;;
20567;SDS011;10442;49.932;11.592;2023-05-07T04:27:57;6.05;;;5.65;;
20567;SDS011;10442;49.932;11.592;2023-05-07T04:30:27;6.15;;;5.65;;
20567;SDS011;10442;49.932;11.592;2023-05-07T04:32:55;6.97;;;6.25;;
20567;SDS011;10442;49.932;11.592;2023-05-07T04:35:25;6.43;;;6.03;;
20567;SDS011;10442;49.932;11.592;2023-05-07T04:37:53;5.97;;;5.50;;
20567;SDS011;10442;49.932;11.592;2023-05-07T04:40:21;6.82;;;6.32;;
20567;SDS011;10442;49.932;11.592;2023-05-07T04:42:48;9.40;;;7.30;;
20567;SDS011;10442;49.932;11.592;2023-05-07T04:45:16;7.40;;;6.90;;
20567;SDS011;10442;49.932;11.592;2023-05-07T04:47:45;7.93;;;7.30;;
20567;SDS011;10442;49.932;11.592;2023-05-07T04:50:13;8.40;;;7.80;;
20567;SDS011;10442;49.932;11.592;2023-05-07T04:52:41;7.70;;;7.20;;
20567;SDS011;10442;49.932;11.592;2023-05-07T04:55:09;7.13;;;6.53;;
20567;SDS011;10442;49.932;11.592;2023-05-07T04:57:39;6.63;;;6.13;;
20567;SDS011;10442;49.932;11.592;2023-05-07T05:00:10;6.88;;;6.38;;
20567;SDS011;10442;49.932;11.592;2023-05-07T05:02:43;7.88;;;7.28;;
20567;SDS011;10442;49.932;11.592;2023-05-07T05:05:14;7.28;;;6.68;;
20567;SDS011;10442;49.932;11.592;2023-05-07T05:07:42;8.07;;;7.57;;
20567;SDS011;10442;49.932;11.592;2023-05-07T05:10:09;8.90;;;8.30;;
20567;SDS011;10442;49.932;11.592;2023-05-07T05:12:39;8.35;;;7.75;;
20567;SDS011;10442;49.932;11.592;2023-05-07T05:15:07;7.13;;;6.50;;
20567;SDS011;10442;49.932;11.592;2023-05-07T05:17:35;8.18;;;7.35;;
20567;SDS011;10442;49.932;11.592;2023-05-07T05:20:04;8.02;;;7.35;;
20567;SDS011;10442;49.932;11.592;2023-05-07T05:22:33;7.25;;;6.65;;
20567;SDS011;10442;49.932;11.592;2023-05-07T05:25:01;6.80;;;6.35;;
20567;SDS011;10442;49.932;11.592;2023-05-07T05:27:29;7.43;;;6.80;;
20567;SDS011;10442;49.932;11.592;2023-05-07T05:29:56;6.63;;;6.00;;
20567;SDS011;10442;49.932;11.592;2023-05-07T05:32:24;6.85;;;6.25;;
20567;SDS011;10442;49.932;11.592;2023-05-07T05:34:54;7.43;;;6.72;;
20567;SDS011;10442;49.932;11.592;2023-05-07T05:37:22;7.25;;;6.65;;
20567;SDS011;10442;49.932;11.592;2023-05-07T05:39:50;6.80;;;6.20;;
20567;SDS011;10442;49.932;11.592;2023-05-07T05:42:18;7.07;;;6.57;;
20567;SDS011;10442;49.932;11.592;2023-05-07T05:44:45;6.35;;;5.85;;
20567;SDS011;10442;49.932;11.592;2023-05-07T05:47:13;6.70;;;6.20;;
20567;SDS011;10442;49.932;11.592;2023-05-07T05:49:41;6.78;;;6.22;;
20567;SDS011;10442;49.932;11.592;2023-05-07T05:52:11;6.53;;;6.03;;
20567;SDS011;10442;49.932;11.592;2023-05-07T05:54:40;7.35;;;6.65;;
20567;SDS011;10442;49.932;11.592;2023-05-07T05:57:07;6.65;;;6.05;;
20567;SDS011;10442;49.932;11.592;2023-05-07T05:59:35;7.22;;;6.72;;
20567;SDS011;10442;49.932;11.592;2023-05-07T06:02:03;6.38;;;5.80;;
20567;SDS011;10442;49.932;11.592;2023-05-07T06:04:30;6.25;;;5.85;;
20567;SDS011;10442;49.932;11.592;2023-05-07T06:06:58;6.18;;;5.63;;
20567;SDS011;10442;49.932;11.592;2023-05-07T06:09:26;7.30;;;6.60;;
20567;SDS011;10442;49.932;11.592;2023-05-07T06:11:53;7.15;;;6.65;;
20567;SDS011;10442;49.932;11.592;2023-05-07T06:14:20;6.72;;;6.20;;
20567;SDS011;10442;49.932;11.592;2023-05-07T06:16:48;6.75;;;6.15;;
20567;SDS011;10442;49.932;11.592;2023-05-07T06:19:15;6.93;;;6.22;;
20567;SDS011;10442;49.932;11.592;2023-05-07T06:21:45;6.25;;;5.75;;
20567;SDS011;10442;49.932;11.592;2023-05-07T06:24:12;6.15;;;5.65;;
20567;SDS011;10442;49.932;11.592;2023-05-07T06:26:39;6.25;;;5.75;;
20567;SDS011;10442;49.932;11.592;2023-05-07T06:29:07;5.97;;;5.43;;
20567;SDS011;10442;49.932;11.592;2023-05-07T06:31:35;6.20;;;5.70;;
20567;SDS011;10442;49.932;11.592;2023-05-07T06:34:06;6.25;;;5.85;;
20567;SDS011;10442;49.932;11.592;2023-05-07T06:36:36;7.18;;;6.47;;
20567;SDS011;10442;49.932;11.592;2023-05-07T06:39:13;5.65;;;5.35;;
20567;SDS011;10442;49.932;11.592;2023-05-07T06:41:40;6.72;;;6.13;;
20567;SDS011;10442;49.932;11.592;2023-05-07T06:44:16;6.80;;;6.30;;
20567;SDS011;10442;49.932;11.592;2023-05-07T06:46:47;5.88;;;5.43;;
20567;SDS011;10442;49.932;11.592;2023-05-07T06:49:15;6.47;;;5.97;;
20567;SDS011;10442;49.932;11.592;2023-05-07T06:51:44;6.00;;;4.93;;
20567;SDS011;10442;49.932;11.592;2023-05-07T06:54:11;6.18;;;5.68;;
20567;SDS011;10442;49.932;11.592;2023-05-07T06:56:40;5.97;;;5.57;;
20567;SDS011;10442;49.932;11.592;2023-05-07T06:59:08;6.75;;;6.25;;
20567;SDS011;10442;49.932;11.592;2023-05-07T07:01:39;6.95;;;6.28;;
20567;SDS011;10442;49.932;11.592;2023-05-07T07:04:08;7.32;;;6.07;;
20567;SDS011;10442;49.932;11.592;2023-05-07T07:06:37;6.25;;;5.85;;
20567;SDS011;10442;49.932;11.592;2023-05-07T07:09:09;5.63;;;5.22;;
20567;SDS011;10442;49.932;11.592;2023-05-07T07:11:36;5.63;;;5.20;;
20567;SDS011;10442;49.932;11.592;2023-05-07T07:14:05;7.43;;;6.82;;
20567;SDS011;10442;49.932;11.592;2023-05-07T07:16:37;5.35;;;4.95;;
20567;SDS011;10442;49.932;11.592;2023-05-07T07:19:04;6.80;;;6.13;;
20567;SDS011;10442;49.932;11.592;2023-05-07T07:21:32;6.35;;;5.75;;
20567;SDS011;10442;49.932;11.592;2023-05-07T07:23:59;6.13;;;5.63;;
20567;SDS011;10442;49.932;11.592;2023-05-07T07:26:27;6.28;;;5.78;;
20567;SDS011;10442;49.932;11.592;2023-05-07T07:28:54;5.75;;;5.35;;
20567;SDS011;10442;49.932;11.592;2023-05-07T07:31:23;5.38;;;4.97;;
20567;SDS011;10442;49.932;11.592;2023-05-07T07:33:51;6.60;;;5.95;;
20567;SDS011;10442;49.932;11.592;2023-05-07T07:36:19;5.80;;;5.30;;
20567;SDS011;10442;49.932;11.592;2023-05-07T07:38:49;6.70;;;6.18;;
20567;SDS011;10442;49.932;11.592;2023-05-07T07:41:17;7.13;;;6.07;;
20567;SDS011;10442;49.932;11.592;2023-05-07T07:43:44;6.30;;;5.80;;
20567;SDS011;10442;49.932;11.592;2023-05-07T07:46:16;5.95;;;5.47;;
20567;SDS011;10442;49.932;11.592;2023-05-07T07:48:44;6.22;;;5.80;;
20567;SDS011;10442;49.932;11.592;2023-05-07T07:51:12;6.25;;;5.85;;
20567;SDS011;10442;49.932;11.592;2023-05-07T07:53:40;6.70;;;6.15;;
20567;SDS011;10442;49.932;11.592;2023-05-07T07:56:08;6.90;;;6.40;;
20567;SDS011;10442;49.932;11.592;2023-05-07T07:58:35;5.50;;;5.05;;
20567;SDS011;10442;49.932;11.592;2023-05-07T08:01:04;7.05;;;6.55;;
20567;SDS011;10442;49.932;11.592;2023-05-07T08:03:32;6.15;;;5.75;;
20567;SDS011;10442;49.932;11.592;2023-05-07T08:06:01;7.10;;;6.50;;
20567;SDS011;10442;49.932;11.592;2023-05-07T08:08:30;7.50;;;6.90;;
20567;SDS011;10442;49.932;11.592;2023-05-07T08:10:58;7.90;;;7.30;;
20567;SDS011;10442;49.932;11.592;2023-05-07T08:13:30;8.50;;;7.90;;
20567;SDS011;10442;49.932;11.592;2023-05-07T08:15:59;8.30;;;7.60;;
20567;SDS011;10442;49.932;11.592;2023-05-07T08:18:26;10.90;;;7.78;;
20567;SDS011;10442;49.932;11.592;2023-05-07T08:20:57;8.80;;;8.18;;
20567;SDS011;10442;49.932;11.592;2023-05-07T08:23:26;8.18;;;7.57;;
20567;SDS011;10442;49.932;11.592;2023-05-07T08:25:54;9.20;;;8.45;;
20567;SDS011;10442;49.932;11.592;2023-05-07T08:28:22;8.05;;;7.25;;
20567;SDS011;10442;49.932;11.592;2023-05-07T08:30:51;8.10;;;7.43;;
20567;SDS011;10442;49.932;11.592;2023-05-07T08:33:19;9.30;;;8.40;;
20567;SDS011;10442;49.932;11.592;2023-05-07T08:35:47;8.13;;;7.53;;
20567;SDS011;10442;49.932;11.592;2023-05-07T08:38:14;8.18;;;7.25;;
20567;SDS011;10442;49.932;11.592;2023-05-07T08:40:42;8.05;;;7.45;;
20567;SDS011;10442;49.932;11.592;2023-05-07T08:43:15;8.55;;;7.82;;
20567;SDS011;10442;49.932;11.592;2023-05-07T08:45:44;8.25;;;7.55;;
20567;SDS011;10442;49.932;11.592;2023-05-07T08:48:15;7.13;;;6.53;;
20567;SDS011;10442;49.932;11.592;2023-05-07T08:50:48;7.20;;;6.55;;
20567;SDS011;10442;49.932;11.592;2023-05-07T08:53:15;6.60;;;6.15;;
20567;SDS011;10442;49.932;11.592;2023-05-07T08:55:44;7.35;;;6.75;;
20567;SDS011;10442;49.932;11.592;2023-05-07T08:58:13;6.60;;;6.07;;
20567;SDS011;10442;49.932;11.592;2023-05-07T09:00:40;7.30;;;6.78;;
20567;SDS011;10442;49.932;11.592;2023-05-07T09:03:09;6.55;;;5.95;;
20567;SDS011;10442;49.932;11.592;2023-05-07T09:05:41;5.95;;;5.45;;
20567;SDS011;10442;49.932;11.592;2023-05-07T09:08:14;6.65;;;6.13;;
20567;SDS011;10442;49.932;11.592;2023-05-07T09:10:44;5.90;;;4.72;;
20567;SDS011;10442;49.932;11.592;2023-05-07T09:13:12;4.93;;;4.53;;
20567;SDS011;10442;49.932;11.592;2023-05-07T09:15:41;6.15;;;5.15;;
20567;SDS011;10442;49.932;11.592;2023-05-07T09:18:09;6.40;;;5.90;;
20567;SDS011;10442;49.932;11.592;2023-05-07T09:20:38;6.32;;;5.75;;
20567;SDS011;10442;49.932;11.592;2023-05-07T09:23:07;5.95;;;5.55;;
20567;SDS011;10442;49.932;11.592;2023-05-07T09:25:36;6.85;;;5.90;;
20567;SDS011;10442;49.932;11.592;2023-05-07T09:28:11;7.40;;;6.70;;
20567;SDS011;10442;49.932;11.592;2023-05-07T09:30:39;6.25;;;5.78;;
20567;SDS011;10442;49.932;11.592;2023-05-07T09:33:09;7.85;;;5.97;;
20567;SDS011;10442;49.932;11.592;2023-05-07T09:35:39;6.18;;;5.57;;
20567;SDS011;10442;49.932;11.592;2023-05-07T09:38:12;5.43;;;4.90;;
20567;SDS011;10442;49.932;11.592;2023-05-07T09:40:40;5.38;;;4.97;;
20567;SDS011;10442;49.932;11.592;2023-05-07T09:43:12;5.03;;;4.63;;
20567;SDS011;10442;49.932;11.592;2023-05-07T09:45:50;6.95;;;5.75;;
20567;SDS011;10442;49.932;11.592;2023-05-07T09:48:21;5.93;;;5.43;;
20567;SDS011;10442;49.932;11.592;2023-05-07T09:50:51;5.93;;;5.53;;
20567;SDS011;10442;49.932;11.592;2023-05-07T09:53:25;5.78;;;5.35;;
20567;SDS011;10442;49.932;11.592;2023-05-07T09:55:55;6.80;;;6.30;;
20567;SDS011;10442;49.932;11.592;2023-05-07T09:58:25;6.35;;;5.78;;
20567;SDS011;10442;49.932;11.592;2023-05-07T10:00:54;6.00;;;5.50;;
20567;SDS011;10442;49.932;11.592;2023-05-07T10:03:24;5.43;;;4.88;;
20567;SDS011;10442;49.932;11.592;2023-05-07T10:05:59;5.35;;;4.95;;
20567;SDS011;10442;49.932;11.592;2023-05-07T10:08:28;5.22;;;4.90;;
20567;SDS011;10442;49.932;11.592;2023-05-07T10:11:00;6.05;;;5.65;;
20567;SDS011;10442;49.932;11.592;2023-05-07T10:13:29;6.82;;;6.25;;
20567;SDS011;10442;49.932;11.592;2023-05-07T10:15:59;6.28;;;5.53;;
20567;SDS011;10442;49.932;11.592;2023-05-07T10:18:32;5.25;;;4.78;;
20567;SDS011;10442;49.932;11.592;2023-05-07T10:21:08;5.18;;;4.78;;
20567;SDS011;10442;49.932;11.592;2023-05-07T10:23:41;6.13;;;5.63;;
20567;SDS011;10442;49.932;11.592;2023-05-07T10:26:13;6.70;;;4.68;;
20567;SDS011;10442;49.932;11.592;2023-05-07T10:28:43;5.78;;;5.38;;
20567;SDS011;10442;49.932;11.592;2023-05-07T10:31:24;6.10;;;5.60;;
20567;SDS011;10442;49.932;11.592;2023-05-07T10:34:10;5.43;;;5.03;;
20567;SDS011;10442;49.932;11.592;2023-05-07T10:36:40;5.65;;;5.25;;
20567;SDS011;10442;49.932;11.592;2023-05-07T10:39:09;6.25;;;5.63;;
20567;SDS011;10442;49.932;11.592;2023-05-07T10:41:38;4.93;;;4.53;;
20567;SDS011;10442;49.932;11.592;2023-05-07T10:44:07;5.38;;;4.97;;
20567;SDS011;10442;49.932;11.592;2023-05-07T10:46:35;5.35;;;4.75;;
20567;SDS011;10442;49.932;11.592;2023-05-07T10:49:09;5.63;;;5.18;;
20567;SDS011;10442;49.932;11.592;2023-05-07T10:51:44;5.88;;;5.47;;
20567;SDS011;10442;49.932;11.592;2023-05-07T10:54:23;6.07;;;5.53;;
20567;SDS011;10442;49.932;11.592;2023-05-07T10:57:32;3.97;;;3.67;;
20567;SDS011;10442;49.932;11.592;2023-05-07T11:03:07;4.50;;;4.20;;
20567;SDS011;10442;49.932;11.592;2023-05-07T11:05:47;4.13;;;3.83;;
20567;SDS011;10442;49.932;11.592;2023-05-07T11:08:57;4.00;;;3.70;;
20567;SDS011;10442;49.932;11.592;2023-05-07T11:11:49;4.82;;;4.43;;
20567;SDS011;10442;49.932;11.592;2023-05-07T11:17:17;3.40;;;3.20;;
20567;SDS011;10442;49.932;11.592;2023-05-07T11:19:51;3.10;;;2.90;;
20567;SDS011;10442;49.932;11.592;2023-05-07T11:22:46;3.22;;;3.03;;
20567;SDS011;10442;49.932;11.592;2023-05-07T11:25:21;3.33;;;3.03;;
20567;SDS011;10442;49.932;11.592;2023-05-07T11:28:04;3.50;;;3.20;;
20567;SDS011;10442;49.932;11.592;2023-05-07T11:30:34;3.90;;;3.60;;
20567;SDS011;10442;49.932;11.592;2023-05-07T11:33:03;4.07;;;3.78;;
20567;SDS011;10442;49.932;11.592;2023-05-07T11:35:33;3.38;;;3.10;;
20567;SDS011;10442;49.932;11.592;2023-05-07T11:38:04;3.38;;;3.17;;
20567;SDS011;10442;49.932;11.592;2023-05-07T11:40:34;4.47;;;3.65;;
20567;SDS011;10442;49.932;11.592;2023-05-07T11:43:10;3.80;;;3.35;;
20567;SDS011;10442;49.932;11.592;2023-05-07T11:45:38;3.30;;;3.00;;
20567;SDS011;10442;49.932;11.592;2023-05-07T11:48:05;3.50;;;3.10;;
20567;SDS011;10442;49.932;11.592;2023-05-07T11:50:32;3.65;;;3.45;;
20567;SDS011;10442;49.932;11.592;2023-05-07T11:52:59;2.92;;;2.72;;
20567;SDS011;10442;49.932;11.592;2023-05-07T11:55:27;4.15;;;3.47;;
20567;SDS011;10442;49.932;11.592;2023-05-07T11:57:54;3.45;;;3.15;;
20567;SDS011;10442;49.932;11.592;2023-05-07T12:00:21;3.70;;;3.40;;
20567;SDS011;10442;49.932;11.592;2023-05-07T12:02:49;3.38;;;3.08;;
20567;SDS011;10442;49.932;11.592;2023-05-07T12:05:17;2.90;;;2.70;;
20567;SDS011;10442;49.932;11.592;2023-05-07T12:07:45;3.97;;;3.67;;
20567;SDS011;10442;49.932;11.592;2023-05-07T12:10:13;4.22;;;3.83;;
20567;SDS011;10442;49.932;11.592;2023-05-07T12:12:41;3.45;;;3.25;;
20567;SDS011;10442;49.932;11.592;2023-05-07T12:15:11;3.90;;;3.60;;
20567;SDS011;10442;49.932;11.592;2023-05-07T12:17:49;4.80;;;3.92;;
20567;SDS011;10442;49.932;11.592;2023-05-07T12:20:17;3.60;;;3.30;;
20567;SDS011;10442;49.932;11.592;2023-05-07T12:22:45;4.00;;;3.70;;
20567;SDS011;10442;49.932;11.592;2023-05-07T12:25:14;3.75;;;3.45;;
20567;SDS011;10442;49.932;11.592;2023-05-07T12:27:51;3.78;;;3.33;;
20567;SDS011;10442;49.932;11.592;2023-05-07T12:30:19;2.80;;;2.60;;
20567;SDS011;10442;49.932;11.592;2023-05-07T12:32:46;3.03;;;2.80;;
20567;SDS011;10442;49.932;11.592;2023-05-07T12:35:14;2.65;;;2.45;;
20567;SDS011;10442;49.932;11.592;2023-05-07T12:37:41;3.55;;;3.22;;
20567;SDS011;10442;49.932;11.592;2023-05-07T12:40:09;2.65;;;2.45;;
20567;SDS011;10442;49.932;11.592;2023-05-07T12:42:39;2.45;;;2.35;;
20567;SDS011;10442;49.932;11.592;2023-05-07T12:45:08;2.83;;;2.63;;
20567;SDS011;10442;49.932;11.592;2023-05-07T12:47:47;2.88;;;2.67;;
20567;SDS011;10442;49.932;11.592;2023-05-07T12:50:15;3.28;;;2.97;;
20567;SDS011;10442;49.932;11.592;2023-05-07T12:52:46;4.88;;;3.00;;
20567;SDS011;10442;49.932;11.592;2023-05-07T12:55:15;4.00;;;3.35;;
20567;SDS011;10442;49.932;11.592;2023-05-07T12:57:45;3.00;;;2.80;;
20567;SDS011;10442;49.932;11.592;2023-05-07T13:00:16;3.28;;;3.08;;
20567;SDS011;10442;49.932;11.592;2023-05-07T13:02:44;5.95;;;3.60;;
20567;SDS011;10442;49.932;11.592;2023-05-07T13:05:12;3.70;;;3.40;;
20567;SDS011;10442;49.932;11.592;2023-05-07T13:07:40;4.00;;;3.70;;
20567;SDS011;10442;49.932;11.592;2023-05-07T13:10:19;6.38;;;2.80;;
20567;SDS011;10442;49.932;11.592;2023-05-07T13:12:46;3.67;;;3.40;;
20567;SDS011;10442;49.932;11.592;2023-05-07T13:15:14;2.60;;;2.40;;
20567;SDS011;10442;49.932;11.592;2023-05-07T13:17:41;4.15;;;3.85;;
20567;SDS011;10442;49.932;11.592;2023-05-07T13:20:09;3.47;;;3.13;;
20567;SDS011;10442;49.932;11.592;2023-05-07T13:22:38;3.72;;;3.42;;
20567;SDS011;10442;49.932;11.592;2023-05-07T13:25:06;3.50;;;3.22;;
20567;SDS011;10442;49.932;11.592;2023-05-07T13:27:34;3.55;;;3.35;;
20567;SDS011;10442;49.932;11.592;2023-05-07T13:30:03;4.88;;;3.47;;
20567;SDS011;10442;49.932;11.592;2023-05-07T13:32:32;3.20;;;3.00;;
20567;SDS011;10442;49.932;11.592;2023-05-07T13:35:00;3.05;;;2.85;;
20567;SDS011;10442;49.932;11.592;2023-05-07T13:37:28;3.35;;;3.15;;
20567;SDS011;10442;49.932;11.592;2023-05-07T13:39:55;3.10;;;2.88;;
20567;SDS011;10442;49.932;11.592;2023-05-07T13:42:22;3.25;;;3.03;;
20567;SDS011;10442;49.932;11.592;2023-05-07T13:44:50;2.72;;;2.53;;
20567;SDS011;10442;49.932;11.592;2023-05-07T13:47:17;2.90;;;2.60;;
20567;SDS011;10442;49.932;11.592;2023-05-07T13:49:45;3.50;;;3.20;;
20567;SDS011;10442;49.932;11.592;2023-05-07T13:52:12;2.58;;;2.38;;
20567;SDS011;10442;49.932;11.592;2023-05-07T13:54:39;6.80;;;4.43;;
20567;SDS011;10442;49.932;11.592;2023-05-07T13:57:07;3.13;;;2.92;;
20567;SDS011;10442;49.932;11.592;2023-05-07T13:59:34;3.40;;;3.20;;
20567;SDS011;10442;49.932;11.592;2023-05-07T14:02:02;3.08;;;2.88;;
20567;SDS011;10442;49.932;11.592;2023-05-07T14:04:30;4.30;;;3.00;;
20567;SDS011;10442;49.932;11.592;2023-05-07T14:06:57;2.83;;;2.63;;
20567;SDS011;10442;49.932;11.592;2023-05-07T14:09:25;3.40;;;3.10;;
20567;SDS011;10442;49.932;11.592;2023-05-07T14:11:52;3.83;;;3.53;;
20567;SDS011;10442;49.932;11.592;2023-05-07T14:14:19;3.95;;;3.63;;
20567;SDS011;10442;49.932;11.592;2023-05-07T14:16:46;4.32;;;3.90;;
20567;SDS011;10442;49.932;11.592;2023-05-07T14:19:16;3.92;;;3.63;;
20567;SDS011;10442;49.932;11.592;2023-05-07T14:21:43;3.50;;;3.30;;
20567;SDS011;10442;49.932;11.592;2023-05-07T14:24:11;3.85;;;3.55;;
20567;SDS011;10442;49.932;11.592;2023-05-07T14:26:38;4.05;;;3.75;;
20567;SDS011;10442;49.932;11.592;2023-05-07T14:29:05;3.17;;;2.97;;
20567;SDS011;10442;49.932;11.592;2023-05-07T14:31:33;3.78;;;3.42;;
20567;SDS011;10442;49.932;11.592;2023-05-07T14:34:00;4.03;;;3.72;;
20567;SDS011;10442;49.932;11.592;2023-05-07T14:36:28;5.82;;;4.07;;
20567;SDS011;10442;49.932;11.592;2023-05-07T14:38:57;4.15;;;3.85;;
20567;SDS011;10442;49.932;11.592;2023-05-07T14:41:26;5.18;;;4.30;;
20567;SDS011;10442;49.932;11.592;2023-05-07T14:43:53;4.38;;;3.97;;
20567;SDS011;10442;49.932;11.592;2023-05-07T14:46:21;4.07;;;3.78;;
20567;SDS011;10442;49.932;11.592;2023-05-07T14:48:48;4.18;;;3.88;;
20567;SDS011;10442;49.932;11.592;2023-05-07T14:51:16;4.97;;;4.50;;
20567;SDS011;10442;49.932;11.592;2023-05-07T14:53:43;5.00;;;4.60;;